createdAt,value
2023-07-08T00:00:44.334Z,54.25
2023-07-08T00:01:44.369Z,54.25
2023-07-08T00:02:44.417Z,54.16
2023-07-08T00:03:44.329Z,54.16
2023-07-08T00:04:44.232Z,54.16
2023-07-08T00:05:44.259Z,54.25
2023-07-08T00:06:44.270Z,54.35
2023-07-08T00:07:44.224Z,54.35
2023-07-08T00:08:44.206Z,54.25
2023-07-08T00:09:44.189Z,54.35
2023-07-08T00:10:44.149Z,54.46
2023-07-08T00:11:44.197Z,54.25
2023-07-08T00:12:44.135Z,54.35
2023-07-08T00:13:44.238Z,54.35
2023-07-08T00:14:44.205Z,54.35
2023-07-08T00:15:44.206Z,54.25
2023-07-08T00:16:44.253Z,54.35
2023-07-08T00:17:44.166Z,54.35
2023-07-08T00:18:44.077Z,54.46
2023-07-08T00:19:44.186Z,54.55
2023-07-08T00:20:44.072Z,54.46
2023-07-08T00:21:44.058Z,54.55
2023-07-08T00:22:44.056Z,54.58
2023-07-08T00:23:44.105Z,54.58
2023-07-08T00:24:44.025Z,54.58
2023-07-08T00:25:44.367Z,54.58
2023-07-08T00:26:44.594Z,54.78
2023-07-08T00:27:44.408Z,54.78
2023-07-08T00:28:44.012Z,54.68
2023-07-08T00:29:43.979Z,54.58
2023-07-08T00:30:43.994Z,54.58
2023-07-08T00:31:43.991Z,54.68
2023-07-08T00:32:43.918Z,54.78
2023-07-08T00:33:44.002Z,54.68
2023-07-08T00:34:43.966Z,54.68
2023-07-08T00:35:43.968Z,54.68
2023-07-08T00:36:43.874Z,54.78
2023-07-08T00:37:43.885Z,54.78
2023-07-08T00:38:43.892Z,54.78
2023-07-08T00:39:43.845Z,54.78
2023-07-08T00:40:43.798Z,54.88
2023-07-08T00:41:43.828Z,54.68
2023-07-08T00:42:43.800Z,55.08
2023-07-08T00:43:43.770Z,54.97
2023-07-08T00:44:43.772Z,54.88
2023-07-08T00:45:57.269Z,54.97
2023-07-08T00:46:43.751Z,55.08
2023-07-08T00:47:43.841Z,54.97
2023-07-08T00:48:43.721Z,54.78
2023-07-08T00:49:43.728Z,54.65
2023-07-08T00:50:43.795Z,55.05
2023-07-08T00:51:43.720Z,54.95
2023-07-08T00:52:43.712Z,54.85
2023-07-08T00:53:43.714Z,54.65
2023-07-08T00:54:43.622Z,54.95
2023-07-08T00:55:43.707Z,54.95
2023-07-08T00:56:43.639Z,54.95
2023-07-08T00:57:43.650Z,54.75
2023-07-08T00:58:44.095Z,54.75
2023-07-08T00:59:43.600Z,54.55
2023-07-08T01:00:43.609Z,54.65
2023-07-08T01:01:43.627Z,54.65
2023-07-08T01:02:43.869Z,54.75
2023-07-08T01:03:43.604Z,54.75
2023-07-08T01:04:43.610Z,54.75
2023-07-08T01:05:43.588Z,54.95
2023-07-08T01:06:43.605Z,54.78
2023-07-08T01:07:43.548Z,54.88
2023-07-08T01:08:43.554Z,54.88
2023-07-08T01:09:43.589Z,55.08
2023-07-08T01:10:43.579Z,55.38
2023-07-08T01:11:43.466Z,55.18
2023-07-08T01:12:43.496Z,55.18
2023-07-08T01:13:43.613Z,55.38
2023-07-08T01:14:43.505Z,55.27
2023-07-08T01:15:43.532Z,55.27
2023-07-08T01:16:43.538Z,55.18
2023-07-08T01:17:44.466Z,55.18
2023-07-08T01:18:43.451Z,55.18
2023-07-08T01:19:43.486Z,55.27
2023-07-08T01:20:43.480Z,55.27
2023-07-08T01:21:43.434Z,55.57
2023-07-08T01:22:43.412Z,55.57
2023-07-08T01:23:43.857Z,55.38
2023-07-08T01:24:43.395Z,55.57
2023-07-08T01:25:43.357Z,55.47
2023-07-08T01:26:43.440Z,55.50
2023-07-08T01:27:43.403Z,55.90
2023-07-08T01:28:45.403Z,55.80
2023-07-08T01:29:45.911Z,55.90
2023-07-08T01:30:43.375Z,55.80
2023-07-08T01:31:44.241Z,55.70
2023-07-08T01:32:43.716Z,55.80
2023-07-08T01:33:43.340Z,55.90
2023-07-08T01:34:43.319Z,55.90
2023-07-08T01:35:43.307Z,55.90
2023-07-08T01:36:43.307Z,56.00
2023-07-08T01:37:43.263Z,55.80
2023-07-08T01:38:43.469Z,55.90
2023-07-08T01:39:43.767Z,55.80
2023-07-08T01:40:44.041Z,56.10
2023-07-08T01:41:46.072Z,56.10
2023-07-08T01:42:43.251Z,56.00
2023-07-08T01:43:43.176Z,56.00
2023-07-08T01:44:44.073Z,56.00
2023-07-08T01:45:45.426Z,56.00
2023-07-08T01:46:43.913Z,56.00
2023-07-08T01:47:43.205Z,55.90
2023-07-08T01:48:43.146Z,55.90
2023-07-08T01:49:43.117Z,55.90
2023-07-08T01:50:43.118Z,56.00
2023-07-08T01:51:43.104Z,55.80
2023-07-08T01:52:43.074Z,55.90
2023-07-08T01:53:43.362Z,55.90
2023-07-08T01:54:43.033Z,55.90
2023-07-08T01:55:43.889Z,55.90
2023-07-08T01:56:43.047Z,55.90
2023-07-08T01:57:43.004Z,55.90
2023-07-08T01:58:43.687Z,56.00
2023-07-08T01:59:42.929Z,56.10
2023-07-08T02:00:42.997Z,56.00
2023-07-08T02:01:43.053Z,56.00
2023-07-08T02:02:44.401Z,56.10
2023-07-08T02:03:45.186Z,56.10
2023-07-08T02:04:43.569Z,56.10
2023-07-08T02:05:42.966Z,56.20
2023-07-08T02:06:42.935Z,56.00
2023-07-08T02:07:42.886Z,55.90
2023-07-08T02:08:42.789Z,55.82
2023-07-08T02:09:43.673Z,55.93
2023-07-08T02:10:42.818Z,55.93
2023-07-08T02:11:42.767Z,55.82
2023-07-08T02:12:42.822Z,55.82
2023-07-08T02:13:42.829Z,55.82
2023-07-08T02:14:43.409Z,56.12
2023-07-08T02:15:42.850Z,56.02
2023-07-08T02:16:42.682Z,56.02
2023-07-08T02:17:42.709Z,56.02
2023-07-08T02:18:42.735Z,56.02
2023-07-08T02:19:42.723Z,56.02
2023-07-08T02:20:42.663Z,56.02
2023-07-08T02:21:42.637Z,56.02
2023-07-08T02:22:42.596Z,55.93
2023-07-08T02:23:42.633Z,55.93
2023-07-08T02:24:42.559Z,55.82
2023-07-08T02:25:42.612Z,56.02
2023-07-08T02:26:42.594Z,55.93
2023-07-08T02:27:42.621Z,55.93
2023-07-08T02:28:42.512Z,55.93
2023-07-08T02:29:42.516Z,55.93
2023-07-08T02:30:42.549Z,55.93
2023-07-08T02:31:42.643Z,55.82
2023-07-08T02:32:42.591Z,55.82
2023-07-08T02:33:42.494Z,55.93
2023-07-08T02:34:42.423Z,55.82
2023-07-08T02:35:42.517Z,55.63
2023-07-08T02:36:42.447Z,55.63
2023-07-08T02:37:42.405Z,55.63
2023-07-08T02:38:42.552Z,55.53
2023-07-08T02:39:42.399Z,55.53
2023-07-08T02:40:42.354Z,55.53
2023-07-08T02:41:42.387Z,55.53
2023-07-08T02:42:42.372Z,55.53
2023-07-08T02:43:42.394Z,55.53
2023-07-08T02:44:42.352Z,55.53
2023-07-08T02:45:42.388Z,55.53
2023-07-08T02:46:42.300Z,55.53
2023-07-08T02:47:42.395Z,55.53
2023-07-08T02:48:42.352Z,55.63
2023-07-08T02:49:42.324Z,55.53
2023-07-08T02:50:42.430Z,55.63
2023-07-08T02:51:42.303Z,55.63
2023-07-08T02:52:42.333Z,55.63
2023-07-08T02:53:42.331Z,55.63
2023-07-08T02:54:42.167Z,55.65
2023-07-08T02:55:42.265Z,55.63
2023-07-08T02:56:42.303Z,55.63
2023-07-08T02:57:42.342Z,55.65
2023-07-08T02:58:42.165Z,55.65
2023-07-08T02:59:42.272Z,55.65
2023-07-08T03:00:42.227Z,55.65
2023-07-08T03:01:42.366Z,55.76
2023-07-08T03:02:42.244Z,55.76
2023-07-08T03:03:42.157Z,55.65
2023-07-08T03:04:42.120Z,55.65
2023-07-08T03:05:42.127Z,55.65
2023-07-08T03:06:42.124Z,55.65
2023-07-08T03:07:42.091Z,55.65
2023-07-08T03:08:42.107Z,55.65
2023-07-08T03:09:42.063Z,55.65
2023-07-08T03:10:42.052Z,55.65
2023-07-08T03:11:42.058Z,55.65
2023-07-08T03:12:42.595Z,55.65
2023-07-08T03:13:42.098Z,55.65
2023-07-08T03:14:41.970Z,55.65
2023-07-08T03:15:42.032Z,55.65
2023-07-08T03:16:42.021Z,55.65
2023-07-08T03:17:42.031Z,55.65
2023-07-08T03:18:41.991Z,55.65
2023-07-08T03:19:41.931Z,55.76
2023-07-08T03:20:41.988Z,55.76
2023-07-08T03:21:42.447Z,55.76
2023-07-08T03:22:41.954Z,55.76
2023-07-08T03:23:41.895Z,55.76
2023-07-08T03:24:41.898Z,55.65
2023-07-08T03:25:41.876Z,55.76
2023-07-08T03:26:41.899Z,55.76
2023-07-08T03:27:41.831Z,55.85
2023-07-08T03:28:41.845Z,55.85
2023-07-08T03:29:41.823Z,55.85
2023-07-08T03:30:41.914Z,55.85
2023-07-08T03:31:41.812Z,55.85
2023-07-08T03:32:41.895Z,55.85
2023-07-08T03:33:41.797Z,55.85
2023-07-08T03:34:41.793Z,55.95
2023-07-08T03:35:41.792Z,55.95
2023-07-08T03:36:41.825Z,55.95
2023-07-08T03:37:42.598Z,55.95
2023-07-08T03:38:42.805Z,56.05
2023-07-08T03:39:41.784Z,56.05
2023-07-08T03:40:41.815Z,56.05
2023-07-08T03:41:41.682Z,56.05
2023-07-08T03:42:41.713Z,55.95
2023-07-08T03:43:41.664Z,55.95
2023-07-08T03:44:41.704Z,55.88
2023-07-08T03:45:41.693Z,55.98
2023-07-08T03:46:41.734Z,55.98
2023-07-08T03:47:41.602Z,55.88
2023-07-08T03:48:41.634Z,55.88
2023-07-08T03:49:41.603Z,55.88
2023-07-08T03:50:41.600Z,55.88
2023-07-08T03:51:41.620Z,55.88
2023-07-08T03:52:41.583Z,55.88
2023-07-08T03:53:41.499Z,55.88
2023-07-08T03:54:41.557Z,55.98
2023-07-08T03:55:41.521Z,55.88
2023-07-08T03:56:41.654Z,55.98
2023-07-08T03:57:41.501Z,55.98
2023-07-08T03:58:41.555Z,55.98
2023-07-08T03:59:41.486Z,55.98
2023-07-08T04:00:41.511Z,55.88
2023-07-08T04:01:41.489Z,55.88
2023-07-08T04:02:41.477Z,55.88
2023-07-08T04:03:41.413Z,55.98
2023-07-08T04:04:41.440Z,55.98
2023-07-08T04:05:41.905Z,55.88
2023-07-08T04:06:41.427Z,55.88
2023-07-08T04:07:41.392Z,55.88
2023-07-08T04:08:41.412Z,55.98
2023-07-08T04:09:41.365Z,55.98
2023-07-08T04:10:41.330Z,56.08
2023-07-08T04:11:41.361Z,55.98
2023-07-08T04:12:41.363Z,56.08
2023-07-08T04:13:41.329Z,56.18
2023-07-08T04:14:41.357Z,56.18
2023-07-08T04:15:41.252Z,56.18
2023-07-08T04:16:41.385Z,56.18
2023-07-08T04:17:41.311Z,56.18
2023-07-08T04:18:41.313Z,56.18
2023-07-08T04:19:41.270Z,56.27
2023-07-08T04:20:41.232Z,56.27
2023-07-08T04:21:41.369Z,56.38
2023-07-08T04:22:41.235Z,56.38
2023-07-08T04:23:41.209Z,56.48
2023-07-08T04:24:41.229Z,56.38
2023-07-08T04:25:41.201Z,56.38
2023-07-08T04:26:41.233Z,56.48
2023-07-08T04:27:41.170Z,56.48
2023-07-08T04:28:41.818Z,56.38
2023-07-08T04:29:41.130Z,56.48
2023-07-08T04:30:41.162Z,56.48
2023-07-08T04:31:41.161Z,56.48
2023-07-08T04:32:42.350Z,56.60
2023-07-08T04:33:41.097Z,56.57
2023-07-08T04:34:41.100Z,56.57
2023-07-08T04:35:41.072Z,56.48
2023-07-08T04:36:41.104Z,56.51
2023-07-08T04:37:41.088Z,56.51
2023-07-08T04:38:41.071Z,56.60
2023-07-08T04:39:41.038Z,56.60
2023-07-08T04:40:40.997Z,56.70
2023-07-08T04:41:41.000Z,56.60
2023-07-08T04:42:41.006Z,56.70
2023-07-08T04:43:40.985Z,56.60
2023-07-08T04:44:41.009Z,56.70
2023-07-08T04:45:40.966Z,56.70
2023-07-08T04:46:41.008Z,56.70
2023-07-08T04:47:40.967Z,56.70
2023-07-08T04:48:40.935Z,56.70
2023-07-08T04:49:40.905Z,56.70
2023-07-08T04:50:40.937Z,56.81
2023-07-08T04:51:40.938Z,56.81
2023-07-08T04:52:40.898Z,56.81
2023-07-08T04:53:40.862Z,56.81
2023-07-08T04:54:40.833Z,56.81
2023-07-08T04:55:40.882Z,56.81
2023-07-08T04:56:41.613Z,56.81
2023-07-08T04:57:40.836Z,56.81
2023-07-08T04:58:40.832Z,56.81
2023-07-08T04:59:40.788Z,56.81
2023-07-08T05:00:40.772Z,56.70
2023-07-08T05:01:40.798Z,56.70
2023-07-08T05:02:40.831Z,56.81
2023-07-08T05:03:40.734Z,56.70
2023-07-08T05:04:41.472Z,56.60
2023-07-08T05:05:40.718Z,56.70
2023-07-08T05:06:40.752Z,56.70
2023-07-08T05:07:40.730Z,56.70
2023-07-08T05:08:40.729Z,56.70
2023-07-08T05:09:40.641Z,56.70
2023-07-08T05:10:40.721Z,56.81
2023-07-08T05:11:40.679Z,56.70
2023-07-08T05:12:40.713Z,56.81
2023-07-08T05:13:40.658Z,56.81
2023-07-08T05:14:40.596Z,56.81
2023-07-08T05:15:40.580Z,56.81
2023-07-08T05:16:40.623Z,56.81
2023-07-08T05:17:40.627Z,56.90
2023-07-08T05:18:40.602Z,56.90
2023-07-08T05:19:40.564Z,56.90
2023-07-08T05:20:40.557Z,56.90
2023-07-08T05:21:40.565Z,56.90
2023-07-08T05:22:40.553Z,56.90
2023-07-08T05:23:40.513Z,56.90
2023-07-08T05:24:40.541Z,56.90
2023-07-08T05:25:40.490Z,56.90
2023-07-08T05:26:40.532Z,57.00
2023-07-08T05:27:40.432Z,56.90
2023-07-08T05:28:40.483Z,56.83
2023-07-08T05:29:40.460Z,56.81
2023-07-08T05:30:40.466Z,56.90
2023-07-08T05:31:47.224Z,56.83
2023-07-08T05:32:40.485Z,56.93
2023-07-08T05:33:40.414Z,56.93
2023-07-08T05:34:40.419Z,56.83
2023-07-08T05:35:40.376Z,56.93
2023-07-08T05:36:40.403Z,56.93
2023-07-08T05:37:40.356Z,56.93
2023-07-08T05:38:40.388Z,56.93
2023-07-08T05:39:40.326Z,57.03
2023-07-08T05:40:40.339Z,56.93
2023-07-08T05:41:40.315Z,56.93
2023-07-08T05:42:40.317Z,56.93
2023-07-08T05:43:40.290Z,56.93
2023-07-08T05:44:40.350Z,56.93
2023-07-08T05:45:40.314Z,57.03
2023-07-08T05:46:40.350Z,56.93
2023-07-08T05:47:40.956Z,57.03
2023-07-08T05:48:40.270Z,56.93
2023-07-08T05:49:40.206Z,57.03
2023-07-08T05:50:40.242Z,57.03
2023-07-08T05:51:40.204Z,57.03
2023-07-08T05:52:40.907Z,57.03
2023-07-08T05:53:40.167Z,57.03
2023-07-08T05:54:40.168Z,57.03
2023-07-08T05:55:40.108Z,57.13
2023-07-08T05:56:40.194Z,57.23
2023-07-08T05:57:40.122Z,57.13
2023-07-08T05:58:40.148Z,57.13
2023-07-08T05:59:40.119Z,57.13
2023-07-08T06:00:40.062Z,57.13
2023-07-08T06:01:40.142Z,57.13
2023-07-08T06:02:40.134Z,57.13
2023-07-08T06:03:40.095Z,57.13
2023-07-08T06:04:40.066Z,57.03
2023-07-08T06:05:39.972Z,57.13
2023-07-08T06:06:40.049Z,57.13
2023-07-08T06:07:40.014Z,57.13
2023-07-08T06:08:40.045Z,57.23
2023-07-08T06:09:40.003Z,57.13
2023-07-08T06:10:39.947Z,57.23
2023-07-08T06:11:39.958Z,57.13
2023-07-08T06:12:39.996Z,57.13
2023-07-08T06:13:39.997Z,57.13
2023-07-08T06:14:39.980Z,57.13
2023-07-08T06:15:39.854Z,57.03
2023-07-08T06:16:41.446Z,56.93
2023-07-08T06:17:39.932Z,56.93
2023-07-08T06:18:39.929Z,57.03
2023-07-08T06:19:39.886Z,57.03
2023-07-08T06:20:39.900Z,57.13
2023-07-08T06:21:39.842Z,57.13
2023-07-08T06:22:47.157Z,57.13
2023-07-08T06:23:39.818Z,57.23
2023-07-08T06:24:39.841Z,57.23
2023-07-08T06:25:39.746Z,57.15
2023-07-08T06:26:39.832Z,57.15
2023-07-08T06:27:39.793Z,57.03
2023-07-08T06:28:39.788Z,57.06
2023-07-08T06:29:39.742Z,57.15
2023-07-08T06:30:39.799Z,57.06
2023-07-08T06:31:39.760Z,57.06
2023-07-08T06:32:39.767Z,57.06
2023-07-08T06:33:39.703Z,57.06
2023-07-08T06:34:39.750Z,57.15
2023-07-08T06:35:39.696Z,57.06
2023-07-08T06:36:39.694Z,57.15
2023-07-08T06:37:39.676Z,57.15
2023-07-08T06:38:39.686Z,57.15
2023-07-08T06:39:42.130Z,57.15
2023-07-08T06:40:39.658Z,57.15
2023-07-08T06:41:39.631Z,57.15
2023-07-08T06:42:39.631Z,57.15
2023-07-08T06:43:39.603Z,57.26
2023-07-08T06:44:39.658Z,57.15
2023-07-08T06:45:39.620Z,57.15
2023-07-08T06:46:39.586Z,57.15
2023-07-08T06:47:39.587Z,57.26
2023-07-08T06:48:39.565Z,57.26
2023-07-08T06:49:39.528Z,57.26
2023-07-08T06:50:39.950Z,57.26
2023-07-08T06:51:39.507Z,57.26
2023-07-08T06:52:39.536Z,57.26
2023-07-08T06:53:39.470Z,57.15
2023-07-08T06:54:39.449Z,57.15
2023-07-08T06:55:39.448Z,57.15
2023-07-08T06:56:39.529Z,57.15
2023-07-08T06:57:39.432Z,57.15
2023-07-08T06:58:39.467Z,57.26
2023-07-08T06:59:39.368Z,57.26
2023-07-08T07:00:39.444Z,57.26
2023-07-08T07:01:39.411Z,57.26
2023-07-08T07:02:39.469Z,57.35
2023-07-08T07:03:39.419Z,57.26
2023-07-08T07:04:39.355Z,57.15
2023-07-08T07:05:39.288Z,57.26
2023-07-08T07:06:39.397Z,57.15
2023-07-08T07:07:39.317Z,57.15
2023-07-08T07:08:39.356Z,57.15
2023-07-08T07:09:39.317Z,57.15
2023-07-08T07:10:39.279Z,57.26
2023-07-08T07:11:40.028Z,57.26
2023-07-08T07:12:39.274Z,57.06
2023-07-08T07:13:39.302Z,57.15
2023-07-08T07:15:39.218Z,57.26
2023-07-08T07:16:39.271Z,57.26
2023-07-08T07:17:39.378Z,57.26
2023-07-08T07:18:39.233Z,57.26
2023-07-08T07:19:39.185Z,57.26
2023-07-08T07:20:39.214Z,57.26
2023-07-08T07:21:39.152Z,57.26
2023-07-08T07:22:39.180Z,57.26
2023-07-08T07:23:39.146Z,57.26
2023-07-08T07:24:39.163Z,57.26
2023-07-08T07:25:39.138Z,57.35
2023-07-08T07:26:39.159Z,57.26
2023-07-08T07:27:39.111Z,57.35
2023-07-08T07:28:39.120Z,57.35
2023-07-08T07:29:39.093Z,57.46
2023-07-08T07:30:39.060Z,57.46
2023-07-08T07:31:40.893Z,57.46
2023-07-08T07:32:39.159Z,57.35
2023-07-08T07:33:39.038Z,57.35
2023-07-08T07:34:38.997Z,57.35
2023-07-08T07:35:39.010Z,57.35
2023-07-08T07:36:38.996Z,57.39
2023-07-08T07:37:39.017Z,57.39
2023-07-08T07:38:38.978Z,57.48
2023-07-08T07:39:38.988Z,57.39
2023-07-08T07:40:38.964Z,57.39
2023-07-08T07:41:38.963Z,57.39
2023-07-08T07:42:38.852Z,57.48
2023-07-08T07:43:38.937Z,57.48
2023-07-08T07:44:38.906Z,57.48
2023-07-08T07:45:38.893Z,57.48
2023-07-08T07:46:38.893Z,57.48
2023-07-08T07:47:38.893Z,57.48
2023-07-08T07:48:38.798Z,57.48
2023-07-08T07:49:38.863Z,57.48
2023-07-08T07:50:38.837Z,57.48
2023-07-08T07:51:38.860Z,57.48
2023-07-08T07:52:38.802Z,57.48
2023-07-08T07:53:38.816Z,57.48
2023-07-08T07:54:38.712Z,57.48
2023-07-08T07:55:38.779Z,57.48
2023-07-08T07:56:38.817Z,57.48
2023-07-08T07:57:38.759Z,57.39
2023-07-08T07:58:38.722Z,57.48
2023-07-08T07:59:38.781Z,57.48
2023-07-08T08:00:38.712Z,57.39
2023-07-08T08:01:38.764Z,57.39
2023-07-08T08:02:38.721Z,57.39
2023-07-08T08:03:38.756Z,57.48
2023-07-08T08:04:38.703Z,57.48
2023-07-08T08:05:38.691Z,57.48
2023-07-08T08:06:38.640Z,57.48
2023-07-08T08:07:38.672Z,57.48
2023-07-08T08:08:39.314Z,57.39
2023-07-08T08:09:38.639Z,57.48
2023-07-08T08:10:38.599Z,57.48
2023-07-08T08:11:38.610Z,57.48
2023-07-08T08:12:52.174Z,57.48
2023-07-08T08:13:38.635Z,57.58
2023-07-08T08:14:38.560Z,57.48
2023-07-08T08:15:38.588Z,57.39
2023-07-08T08:16:38.580Z,57.39
2023-07-08T08:17:38.556Z,57.48
2023-07-08T08:18:38.521Z,57.48
2023-07-08T08:19:38.526Z,57.48
2023-07-08T08:20:40.044Z,57.58
2023-07-08T08:21:38.499Z,57.68
2023-07-08T08:22:38.453Z,57.78
2023-07-08T08:23:38.474Z,57.78
2023-07-08T08:24:38.448Z,57.78
2023-07-08T08:25:38.447Z,57.78
2023-07-08T08:26:38.464Z,57.78
2023-07-08T08:27:38.438Z,57.78
2023-07-08T08:28:38.388Z,57.68
2023-07-08T08:29:38.420Z,57.68
2023-07-08T08:30:38.325Z,57.68
2023-07-08T08:31:38.383Z,57.78
2023-07-08T08:32:38.394Z,57.68
2023-07-08T08:33:38.298Z,57.68
2023-07-08T08:34:38.323Z,57.78
2023-07-08T08:35:38.344Z,57.68
2023-07-08T08:36:38.299Z,57.78
2023-07-08T08:37:38.307Z,57.68
2023-07-08T08:38:38.268Z,57.58
2023-07-08T08:39:38.286Z,57.61
2023-07-08T08:40:38.377Z,57.68
2023-07-08T08:41:38.255Z,57.61
2023-07-08T08:42:38.235Z,57.61
2023-07-08T08:43:39.925Z,57.61
2023-07-08T08:44:38.227Z,57.61
2023-07-08T08:45:40.497Z,57.51
2023-07-08T08:46:38.227Z,57.51
2023-07-08T08:47:38.241Z,57.41
2023-07-08T08:48:38.175Z,57.41
2023-07-08T08:49:38.159Z,57.41
2023-07-08T08:50:38.150Z,57.51
2023-07-08T08:51:38.771Z,57.51
2023-07-08T08:52:38.111Z,57.51
2023-07-08T08:53:38.115Z,57.51
2023-07-08T08:54:38.083Z,57.61
2023-07-08T08:55:38.112Z,57.71
2023-07-08T08:56:38.071Z,57.71
2023-07-08T08:57:38.096Z,57.71
2023-07-08T08:58:38.058Z,57.71
2023-07-08T08:59:38.063Z,57.71
2023-07-08T09:00:38.008Z,57.81
2023-07-08T09:01:38.296Z,57.81
2023-07-08T09:02:38.050Z,57.91
2023-07-08T09:03:38.012Z,57.91
2023-07-08T09:04:37.972Z,57.91
2023-07-08T09:05:37.979Z,57.71
2023-07-08T09:06:37.992Z,57.71
2023-07-08T09:07:37.907Z,57.71
2023-07-08T09:08:37.921Z,57.71
2023-07-08T09:09:37.962Z,57.71
2023-07-08T09:10:37.904Z,57.71
2023-07-08T09:11:37.941Z,57.61
2023-07-08T09:12:37.893Z,57.61
2023-07-08T09:13:37.929Z,57.71
2023-07-08T09:14:37.881Z,57.71
2023-07-08T09:15:37.869Z,57.71
2023-07-08T09:16:37.907Z,57.71
2023-07-08T09:17:38.339Z,57.71
2023-07-08T09:18:37.824Z,57.71
2023-07-08T09:19:37.772Z,57.81
2023-07-08T09:20:37.798Z,57.71
2023-07-08T09:21:37.801Z,57.71
2023-07-08T09:22:38.449Z,57.71
2023-07-08T09:23:37.780Z,57.81
2023-07-08T09:24:37.740Z,57.81
2023-07-08T09:25:37.740Z,57.81
2023-07-08T09:26:37.752Z,57.91
2023-07-08T09:27:37.724Z,57.91
2023-07-08T09:28:37.689Z,57.91
2023-07-08T09:29:37.705Z,57.91
2023-07-08T09:30:37.668Z,58.01
2023-07-08T09:31:37.681Z,58.11
2023-07-08T09:32:37.726Z,58.11
2023-07-08T09:33:37.662Z,58.11
2023-07-08T09:34:37.630Z,58.01
2023-07-08T09:35:37.629Z,57.91
2023-07-08T09:36:37.597Z,57.91
2023-07-08T09:37:37.640Z,57.91
2023-07-08T09:38:37.524Z,57.91
2023-07-08T09:39:37.599Z,57.91
2023-07-08T09:40:37.565Z,57.93
2023-07-08T09:41:37.570Z,57.91
2023-07-08T09:42:37.549Z,58.01
2023-07-08T09:43:37.528Z,58.01
2023-07-08T09:44:37.461Z,57.91
2023-07-08T09:45:37.504Z,57.93
2023-07-08T09:46:37.784Z,57.93
2023-07-08T09:47:37.585Z,57.93
2023-07-08T09:48:37.480Z,58.01
2023-07-08T09:49:37.494Z,58.04
2023-07-08T09:50:37.460Z,58.14
2023-07-08T09:51:37.446Z,58.11
2023-07-08T09:52:37.429Z,58.04
2023-07-08T09:53:37.422Z,58.01
2023-07-08T09:54:37.406Z,58.01
2023-07-08T09:55:37.410Z,58.01
2023-07-08T09:56:37.372Z,58.01
2023-07-08T09:57:37.422Z,57.91
2023-07-08T09:58:37.982Z,57.91
2023-07-08T09:59:37.372Z,57.91
2023-07-08T10:00:37.324Z,57.71
2023-07-08T10:01:37.349Z,57.71
2023-07-08T10:02:37.319Z,57.71
2023-07-08T10:03:37.967Z,57.61
2023-07-08T10:04:37.965Z,57.51
2023-07-08T10:05:37.296Z,57.61
2023-07-08T10:06:37.250Z,57.61
2023-07-08T10:07:37.281Z,57.61
2023-07-08T10:08:37.241Z,57.61
2023-07-08T10:09:37.249Z,57.51
2023-07-08T10:10:37.217Z,57.51
2023-07-08T10:11:37.241Z,57.61
2023-07-08T10:12:37.191Z,57.61
2023-07-08T10:13:37.250Z,57.41
2023-07-08T10:14:37.329Z,57.61
2023-07-08T10:15:37.173Z,57.58
2023-07-08T10:16:37.232Z,57.48
2023-07-08T10:17:37.188Z,57.39
2023-07-08T10:18:37.118Z,57.41
2023-07-08T10:19:37.124Z,57.39
2023-07-08T10:20:37.107Z,57.51
2023-07-08T10:21:37.111Z,57.61
2023-07-08T10:22:37.084Z,57.61
2023-07-08T10:23:37.085Z,57.51
2023-07-08T10:24:37.067Z,57.41
2023-07-08T10:25:37.060Z,57.41
2023-07-08T10:26:37.023Z,57.41
2023-07-08T10:27:37.043Z,57.41
2023-07-08T10:28:37.008Z,57.31
2023-07-08T10:29:37.028Z,57.41
2023-07-08T10:30:36.977Z,57.31
2023-07-08T10:31:37.159Z,57.21
2023-07-08T10:32:37.036Z,57.21
2023-07-08T10:33:36.972Z,57.21
2023-07-08T10:34:36.929Z,57.01
2023-07-08T10:35:39.506Z,57.01
2023-07-08T10:36:36.900Z,57.01
2023-07-08T10:37:36.921Z,57.01
2023-07-08T10:38:36.914Z,57.01
2023-07-08T10:39:36.924Z,57.01
2023-07-08T10:40:36.866Z,57.01
2023-07-08T10:41:36.899Z,56.81
2023-07-08T10:42:36.842Z,56.71
2023-07-08T10:43:36.842Z,56.81
2023-07-08T10:44:36.818Z,56.81
2023-07-08T10:45:36.848Z,56.51
2023-07-08T10:46:36.780Z,56.61
2023-07-08T10:47:36.813Z,56.51
2023-07-08T10:48:36.769Z,56.51
2023-07-08T10:49:36.776Z,56.61
2023-07-08T10:50:36.760Z,56.51
2023-07-08T10:51:36.694Z,56.51
2023-07-08T10:52:36.712Z,56.51
2023-07-08T10:53:36.733Z,56.51
2023-07-08T10:54:36.707Z,56.31
2023-07-08T10:55:36.702Z,56.31
2023-07-08T10:56:36.697Z,56.31
2023-07-08T10:57:36.687Z,56.21
2023-07-08T10:58:36.678Z,56.11
2023-07-08T10:59:36.666Z,56.11
2023-07-08T11:00:36.629Z,56.11
2023-07-08T11:01:36.678Z,56.01
2023-07-08T11:02:36.706Z,56.01
2023-07-08T11:03:36.693Z,56.11
2023-07-08T11:04:36.580Z,56.11
2023-07-08T11:05:36.606Z,56.18
2023-07-08T11:06:36.577Z,56.21
2023-07-08T11:07:36.556Z,55.88
2023-07-08T11:08:36.543Z,55.88
2023-07-08T11:09:36.565Z,55.88
2023-07-08T11:10:37.186Z,55.88
2023-07-08T11:11:36.538Z,55.88
2023-07-08T11:12:36.530Z,55.88
2023-07-08T11:13:36.520Z,55.88
2023-07-08T11:14:36.492Z,55.88
2023-07-08T11:15:36.510Z,55.88
2023-07-08T11:16:37.083Z,55.79
2023-07-08T11:17:36.512Z,55.79
2023-07-08T11:18:36.428Z,55.69
2023-07-08T11:19:36.396Z,55.69
2023-07-08T11:20:36.414Z,55.58
2023-07-08T11:21:36.401Z,55.69
2023-07-08T11:22:37.087Z,55.69
2023-07-08T11:23:36.388Z,55.58
2023-07-08T11:24:36.354Z,55.49
2023-07-08T11:25:36.357Z,55.49
2023-07-08T11:26:36.449Z,55.49
2023-07-08T11:27:36.345Z,55.58
2023-07-08T11:28:36.317Z,55.49
2023-07-08T11:29:36.315Z,55.39
2023-07-08T11:30:36.295Z,55.39
2023-07-08T11:31:36.376Z,55.39
2023-07-08T11:32:36.356Z,55.09
2023-07-08T11:33:36.956Z,55.09
2023-07-08T11:34:36.248Z,55.09
2023-07-08T11:35:36.246Z,55.09
2023-07-08T11:36:36.221Z,55.09
2023-07-08T11:37:36.250Z,54.89
2023-07-08T11:38:36.279Z,54.79
2023-07-08T11:39:36.170Z,54.79
2023-07-08T11:40:36.170Z,54.79
2023-07-08T11:41:36.176Z,54.79
2023-07-08T11:42:36.189Z,54.69
2023-07-08T11:43:36.195Z,54.79
2023-07-08T11:44:38.647Z,54.79
2023-07-08T11:45:36.131Z,54.69
2023-07-08T11:46:36.161Z,54.69
2023-07-08T11:47:36.126Z,54.69
2023-07-08T11:48:36.176Z,54.59
2023-07-08T11:49:36.059Z,54.49
2023-07-08T11:50:36.060Z,54.59
2023-07-08T11:51:36.047Z,54.39
2023-07-08T11:52:36.054Z,54.59
2023-07-08T11:53:36.033Z,54.49
2023-07-08T11:54:36.023Z,54.46
2023-07-08T11:55:36.001Z,54.46
2023-07-08T11:56:36.026Z,54.36
2023-07-08T11:57:35.970Z,54.27
2023-07-08T11:58:36.018Z,54.16
2023-07-08T11:59:35.946Z,54.16
2023-07-08T12:00:35.972Z,54.16
2023-07-08T12:01:36.091Z,54.27
2023-07-08T12:02:35.995Z,53.96
2023-07-08T12:03:35.937Z,53.96
2023-07-08T12:04:35.900Z,53.96
2023-07-08T12:05:35.870Z,54.06
2023-07-08T12:06:35.908Z,54.06
2023-07-08T12:07:35.932Z,54.16
2023-07-08T12:08:35.907Z,53.96
2023-07-08T12:09:35.839Z,53.77
2023-07-08T12:10:35.804Z,53.86
2023-07-08T12:11:35.803Z,53.86
2023-07-08T12:12:35.900Z,53.77
2023-07-08T12:13:35.834Z,53.66
2023-07-08T12:14:35.822Z,53.77
2023-07-08T12:15:35.778Z,53.86
2023-07-08T12:16:35.839Z,53.66
2023-07-08T12:17:35.763Z,53.66
2023-07-08T12:18:35.776Z,53.56
2023-07-08T12:19:36.133Z,53.66
2023-07-08T12:20:35.794Z,53.66
2023-07-08T12:21:35.695Z,53.66
2023-07-08T12:22:35.710Z,53.47
2023-07-08T12:23:35.692Z,53.47
2023-07-08T12:24:35.704Z,53.56
2023-07-08T12:25:35.678Z,53.56
2023-07-08T12:26:35.673Z,53.47
2023-07-08T12:27:35.633Z,53.06
2023-07-08T12:28:35.637Z,53.27
2023-07-08T12:29:35.599Z,53.27
2023-07-08T12:30:35.613Z,53.27
2023-07-08T12:31:35.699Z,53.06
2023-07-08T12:32:35.629Z,53.06
2023-07-08T12:33:35.602Z,53.06
2023-07-08T12:35:35.563Z,52.94
2023-07-08T12:36:35.554Z,52.94
2023-07-08T12:37:35.506Z,52.94
2023-07-08T12:38:35.532Z,52.84
2023-07-08T12:39:35.502Z,52.84
2023-07-08T12:40:35.520Z,52.84
2023-07-08T12:41:37.291Z,52.84
2023-07-08T12:42:35.486Z,53.04
2023-07-08T12:43:35.449Z,52.84
2023-07-08T12:44:35.508Z,52.94
2023-07-08T12:45:35.431Z,52.74
2023-07-08T12:46:35.455Z,52.74
2023-07-08T12:47:36.099Z,52.84
2023-07-08T12:48:35.460Z,52.74
2023-07-08T12:49:35.319Z,52.84
2023-07-08T12:50:35.412Z,52.84
2023-07-08T12:51:35.348Z,52.74
2023-07-08T12:52:35.404Z,52.64
2023-07-08T12:53:35.355Z,52.64
2023-07-08T12:54:35.345Z,52.84